Time,TemperatureF,DewpointF,PressureIn,WindDirection,WindDirectionDegrees,WindSpeedMPH,WindSpeedGustMPH,Humidity,HourlyPrecipIn,Conditions,Clouds,dailyrainin,SoftwareType,DateUTC
2013-05-13 00:01:00,51.4,37.6,30.12,West,270,0.9,1.2,59,0.00,,,0.00,WUHU216TE923,2013-05-13 04:01:00,
2013-05-13 00:02:00,51.3,38.8,30.12,West,270,0.5,0.9,62,0.00,,,0.00,WUHU216TE923,2013-05-13 04:02:00,
2013-05-13 00:07:00,51.3,38.8,30.12,West,270,0.5,0.5,62,0.00,,,0.00,WUHU216TE923,2013-05-13 04:07:00,
2013-05-13 00:12:00,51.3,38.8,30.12,West,270,0.5,0.5,62,0.00,,,0.00,WUHU216TE923,2013-05-13 04:12:00,
2013-05-13 00:17:00,50.9,36.7,30.12,WSW,248,2.0,2.8,58,0.00,,,0.00,WUHU216TE923,2013-05-13 04:17:00,
2013-05-13 00:22:00,50.7,37.0,30.12,SW,225,2.0,2.8,59,0.00,,,0.00,WUHU216TE923,2013-05-13 04:22:00,
2013-05-13 00:27:00,50.7,37.0,30.12,NW,315,1.0,2.0,59,0.00,,,0.00,WUHU216TE923,2013-05-13 04:27:00,
2013-05-13 00:32:00,50.7,37.0,30.12,SW,225,0.4,1.1,59,0.00,,,0.00,WUHU216TE923,2013-05-13 04:32:00,
2013-05-13 00:37:00,50.7,37.4,30.11,North,0,0.2,1.1,60,0.00,,,0.00,WUHU216TE923,2013-05-13 04:37:00,
2013-05-13 00:42:00,50.7,37.4,30.11,ESE,113,0.2,1.3,60,0.00,,,0.00,WUHU216TE923,2013-05-13 04:42:00,
2013-05-13 00:47:00,50.7,37.4,30.11,ENE,68,0.0,1.3,60,0.00,,,0.00,WUHU216TE923,2013-05-13 04:47:00,
2013-05-13 00:52:00,50.5,37.2,30.11,West,270,0.1,0.1,60,0.00,,,0.00,WUHU216TE923,2013-05-13 04:52:00,
2013-05-13 00:57:00,50.5,36.8,30.10,West,270,0.0,0.1,59,0.00,,,0.00,WUHU216TE923,2013-05-13 04:57:00,
2013-05-13 01:02:00,50.5,36.8,30.10,NW,315,0.0,0.0,59,0.00,,,0.00,WUHU216TE923,2013-05-13 05:02:00,
2013-05-13 01:07:00,50.5,36.8,30.10,NW,315,0.0,0.0,59,0.00,,,0.00,WUHU216TE923,2013-05-13 05:07:00,
2013-05-13 01:12:00,50.4,36.3,30.10,WNW,293,0.2,0.2,58,0.00,,,0.00,WUHU216TE923,2013-05-13 05:12:00,
2013-05-13 01:17:00,50.5,36.8,30.10,West,270,0.2,1.1,59,0.00,,,0.00,WUHU216TE923,2013-05-13 05:17:00,
2013-05-13 01:22:00,50.4,36.7,30.10,WSW,248,0.2,1.1,59,0.00,,,0.00,WUHU216TE923,2013-05-13 05:22:00,
2013-05-13 01:27:00,50.4,36.7,30.10,NW,315,0.2,0.2,59,0.00,,,0.00,WUHU216TE923,2013-05-13 05:27:00,
2013-05-13 01:32:00,50.2,36.9,30.10,NNE,23,0.0,0.2,60,0.00,,,0.00,WUHU216TE923,2013-05-13 05:32:00,
2013-05-13 01:37:00,50.2,37.4,30.10,NNE,23,0.2,1.5,61,0.00,,,0.00,WUHU216TE923,2013-05-13 05:37:00,
2013-05-13 01:42:00,50.0,37.2,30.10,NNE,23,0.5,1.5,61,0.00,,,0.00,WUHU216TE923,2013-05-13 05:42:00,
2013-05-13 01:47:00,49.5,36.7,30.10,NE,45,0.6,0.6,61,0.00,,,0.00,WUHU216TE923,2013-05-13 05:47:00,
2013-05-13 01:52:00,49.5,37.1,30.10,NE,45,0.5,0.6,62,0.00,,,0.00,WUHU216TE923,2013-05-13 05:52:00,
2013-05-13 01:57:00,49.1,36.3,30.10,NE,45,0.7,1.3,61,0.00,,,0.00,WUHU216TE923,2013-05-13 05:57:00,
2013-05-13 02:02:00,48.9,36.5,30.10,ENE,68,0.6,1.4,62,0.00,,,0.00,WUHU216TE923,2013-05-13 06:02:00,
2013-05-13 02:07:00,49.1,36.7,30.10,NE,45,0.6,1.4,62,0.00,,,0.00,WUHU216TE923,2013-05-13 06:07:00,
2013-05-13 02:12:00,48.7,36.4,30.10,NNE,23,0.8,0.8,62,0.00,,,0.00,WUHU216TE923,2013-05-13 06:12:00,
2013-05-13 02:17:00,48.7,36.8,30.09,NNE,23,0.8,1.8,63,0.00,,,0.00,WUHU216TE923,2013-05-13 06:17:00,
2013-05-13 02:22:00,48.6,36.7,30.09,NNE,23,0.8,2.1,63,0.00,,,0.00,WUHU216TE923,2013-05-13 06:22:00,
2013-05-13 02:27:00,48.4,36.1,30.09,NNE,23,1.0,2.1,62,0.00,,,0.00,WUHU216TE923,2013-05-13 06:27:00,
2013-05-13 02:32:00,48.0,36.1,30.09,NE,45,0.8,1.2,63,0.00,,,0.00,WUHU216TE923,2013-05-13 06:32:00,
2013-05-13 02:37:00,48.0,36.1,30.09,NNE,23,0.3,0.8,63,0.00,,,0.00,WUHU216TE923,2013-05-13 06:37:00,
2013-05-13 02:42:00,47.8,36.3,30.09,NNE,23,0.2,0.3,64,0.00,,,0.00,WUHU216TE923,2013-05-13 06:42:00,
2013-05-13 02:47:00,47.8,36.3,30.09,ENE,68,0.1,0.2,64,0.00,,,0.00,WUHU216TE923,2013-05-13 06:47:00,
2013-05-13 02:52:00,47.7,36.2,30.09,ENE,68,0.1,0.1,64,0.00,,,0.00,WUHU216TE923,2013-05-13 06:52:00,
2013-05-13 02:57:00,47.7,37.4,30.08,ENE,68,0.0,0.1,67,0.00,,,0.00,WUHU216TE923,2013-05-13 06:57:00,
2013-05-13 03:02:00,47.7,37.4,30.08,ENE,68,0.0,0.0,67,0.00,,,0.00,WUHU216TE923,2013-05-13 07:02:00,
2013-05-13 03:07:00,47.5,37.2,30.08,ENE,68,0.0,0.0,67,0.00,,,0.00,WUHU216TE923,2013-05-13 07:07:00,
2013-05-13 03:12:00,47.5,37.2,30.08,ENE,68,0.0,0.0,67,0.00,,,0.00,WUHU216TE923,2013-05-13 07:12:00,
2013-05-13 03:17:00,47.1,37.5,30.08,ENE,68,0.1,0.1,69,0.00,,,0.00,WUHU216TE923,2013-05-13 07:17:00,
2013-05-13 03:22:00,46.9,37.4,30.08,NE,45,0.2,1.4,69,0.00,,,0.00,WUHU216TE923,2013-05-13 07:22:00,
2013-05-13 03:27:00,46.9,37.4,30.08,NE,45,0.2,1.4,69,0.00,,,0.00,WUHU216TE923,2013-05-13 07:27:00,
2013-05-13 03:32:00,46.6,37.4,30.08,NE,45,0.1,0.1,70,0.00,,,0.00,WUHU216TE923,2013-05-13 07:32:00,
2013-05-13 03:37:00,46.4,37.6,30.07,NE,45,0.0,0.1,71,0.00,,,0.00,WUHU216TE923,2013-05-13 07:37:00,
2013-05-13 03:42:00,46.4,37.6,30.07,NE,45,0.0,0.0,71,0.00,,,0.00,WUHU216TE923,2013-05-13 07:42:00,
2013-05-13 03:47:00,46.4,37.9,30.07,WSW,248,0.0,0.0,72,0.00,,,0.00,WUHU216TE923,2013-05-13 07:47:00,
2013-05-13 03:52:00,46.4,37.9,30.07,WSW,248,0.0,0.0,72,0.00,,,0.00,WUHU216TE923,2013-05-13 07:52:00,
2013-05-13 03:57:00,46.4,37.9,30.07,WSW,248,0.0,0.0,72,0.00,,,0.00,WUHU216TE923,2013-05-13 07:57:00,
2013-05-13 04:02:00,46.2,37.8,30.07,WSW,248,0.0,0.0,72,0.00,,,0.00,WUHU216TE923,2013-05-13 08:02:00,
2013-05-13 04:07:00,46.2,38.1,30.07,NE,45,0.0,0.0,73,0.00,,,0.00,WUHU216TE923,2013-05-13 08:07:00,
2013-05-13 04:12:00,46.0,37.6,30.07,NE,45,0.0,0.0,72,0.00,,,0.00,WUHU216TE923,2013-05-13 08:12:00,
2013-05-13 04:17:00,45.9,37.8,30.08,ENE,68,0.0,0.0,73,0.00,,,0.00,WUHU216TE923,2013-05-13 08:17:00,
2013-05-13 04:22:00,45.9,37.8,30.08,ENE,68,0.0,0.0,73,0.00,,,0.00,WUHU216TE923,2013-05-13 08:22:00,
2013-05-13 04:27:00,45.7,37.6,30.08,ENE,68,0.0,0.0,73,0.00,,,0.00,WUHU216TE923,2013-05-13 08:27:00,
2013-05-13 04:32:00,45.5,37.8,30.08,ENE,68,0.0,0.0,74,0.00,,,0.00,WUHU216TE923,2013-05-13 08:32:00,
2013-05-13 04:37:00,45.5,37.8,30.08,East,90,0.0,0.0,74,0.00,,,0.00,WUHU216TE923,2013-05-13 08:37:00,
2013-05-13 04:42:00,45.5,37.8,30.08,East,90,0.0,0.0,74,0.00,,,0.00,WUHU216TE923,2013-05-13 08:42:00,
2013-05-13 04:47:00,45.5,37.8,30.08,ESE,113,0.0,0.0,74,0.00,,,0.00,WUHU216TE923,2013-05-13 08:47:00,
2013-05-13 04:52:00,45.5,37.8,30.08,ESE,113,0.0,0.0,74,0.00,,,0.00,WUHU216TE923,2013-05-13 08:52:00,
2013-05-13 04:57:00,45.5,38.1,30.07,ESE,113,0.1,0.1,75,0.00,,,0.00,WUHU216TE923,2013-05-13 08:57:00,
2013-05-13 05:02:00,45.5,38.1,30.07,ESE,113,0.1,0.1,75,0.00,,,0.00,WUHU216TE923,2013-05-13 09:02:00,
2013-05-13 05:07:00,45.5,37.8,30.07,ESE,113,0.0,0.1,74,0.00,,,0.00,WUHU216TE923,2013-05-13 09:07:00,
2013-05-13 05:12:00,45.5,37.8,30.07,ESE,113,0.0,0.0,74,0.00,,,0.00,WUHU216TE923,2013-05-13 09:12:00,
2013-05-13 05:17:00,45.3,37.9,30.07,East,90,0.0,0.0,75,0.00,,,0.00,WUHU216TE923,2013-05-13 09:17:00,
2013-05-13 05:22:00,45.1,37.7,30.07,East,90,0.0,0.0,75,0.00,,,0.00,WUHU216TE923,2013-05-13 09:22:00,
2013-05-13 05:27:00,45.0,37.6,30.07,East,90,0.0,0.0,75,0.00,,,0.00,WUHU216TE923,2013-05-13 09:27:00,
2013-05-13 05:32:00,45.0,37.3,30.07,East,90,0.0,0.0,74,0.00,,,0.00,WUHU216TE923,2013-05-13 09:32:00,
2013-05-13 05:37:00,45.0,37.3,30.08,East,90,0.0,0.0,74,0.00,,,0.00,WUHU216TE923,2013-05-13 09:37:00,
2013-05-13 05:42:00,45.0,37.3,30.08,East,90,0.0,0.0,74,0.00,,,0.00,WUHU216TE923,2013-05-13 09:42:00,
2013-05-13 05:47:00,44.8,37.4,30.08,East,90,0.0,0.0,75,0.00,,,0.00,WUHU216TE923,2013-05-13 09:47:00,
2013-05-13 05:52:00,44.8,37.4,30.08,East,90,0.0,0.0,75,0.00,,,0.00,WUHU216TE923,2013-05-13 09:52:00,
2013-05-13 05:57:00,44.6,37.2,30.08,East,90,0.0,0.0,75,0.00,,,0.00,WUHU216TE923,2013-05-13 09:57:00,
2013-05-13 06:02:00,44.8,37.4,30.08,East,90,0.0,0.0,75,0.00,,,0.00,WUHU216TE923,2013-05-13 10:02:00,
2013-05-13 06:07:00,44.8,37.4,30.08,East,90,0.0,0.0,75,0.00,,,0.00,WUHU216TE923,2013-05-13 10:07:00,
2013-05-13 06:12:00,44.8,37.4,30.08,East,90,0.0,0.0,75,0.00,,,0.00,WUHU216TE923,2013-05-13 10:12:00,
2013-05-13 06:17:00,44.4,37.4,30.07,East,90,0.0,0.0,76,0.00,,,0.00,WUHU216TE923,2013-05-13 10:17:00,
2013-05-13 06:22:00,44.2,37.2,30.07,East,90,0.0,0.0,76,0.00,,,0.00,WUHU216TE923,2013-05-13 10:22:00,
2013-05-13 06:27:00,44.2,37.2,30.07,East,90,0.0,0.0,76,0.00,,,0.00,WUHU216TE923,2013-05-13 10:27:00,
2013-05-13 06:32:00,44.4,37.4,30.07,East,90,0.0,0.0,76,0.00,,,0.00,WUHU216TE923,2013-05-13 10:32:00,
2013-05-13 06:37:00,44.1,37.1,30.07,East,90,0.0,0.0,76,0.00,,,0.00,WUHU216TE923,2013-05-13 10:37:00,
2013-05-13 06:42:00,44.1,37.4,30.07,East,90,0.0,1.1,77,0.00,,,0.00,WUHU216TE923,2013-05-13 10:42:00,
2013-05-13 06:47:00,44.1,37.4,30.07,ENE,68,0.3,1.2,77,0.00,,,0.00,WUHU216TE923,2013-05-13 10:47:00,
2013-05-13 06:52:00,44.1,37.1,30.07,ENE,68,0.4,1.2,76,0.00,,,0.00,WUHU216TE923,2013-05-13 10:52:00,
2013-05-13 06:57:00,43.9,36.9,30.08,NNE,23,0.4,0.4,76,0.00,,,0.00,WUHU216TE923,2013-05-13 10:57:00,
2013-05-13 07:02:00,44.1,37.1,30.08,NNE,23,0.2,0.4,76,0.00,,,0.00,WUHU216TE923,2013-05-13 11:02:00,
2013-05-13 07:07:00,43.9,37.2,30.08,NNE,23,0.0,0.2,77,0.00,,,0.00,WUHU216TE923,2013-05-13 11:07:00,
2013-05-13 07:12:00,44.1,37.4,30.08,NNE,23,0.2,1.3,77,0.00,,,0.00,WUHU216TE923,2013-05-13 11:12:00,
2013-05-13 07:17:00,44.1,37.4,30.08,NNE,23,0.4,1.3,77,0.00,,,0.00,WUHU216TE923,2013-05-13 11:17:00,
2013-05-13 07:22:00,44.2,37.5,30.08,NNE,23,0.2,0.4,77,0.00,,,0.00,WUHU216TE923,2013-05-13 11:22:00,
2013-05-13 07:27:00,44.4,37.7,30.08,ENE,68,0.1,0.2,77,0.00,,,0.00,WUHU216TE923,2013-05-13 11:27:00,
2013-05-13 07:32:00,44.2,37.5,30.08,ENE,68,0.1,0.1,77,0.00,,,0.00,WUHU216TE923,2013-05-13 11:32:00,
2013-05-13 07:37:00,44.6,37.9,30.09,East,90,0.2,0.2,77,0.00,,,0.00,WUHU216TE923,2013-05-13 11:37:00,
2013-05-13 07:42:00,44.8,38.1,30.09,West,270,0.2,0.2,77,0.00,,,0.00,WUHU216TE923,2013-05-13 11:42:00,
2013-05-13 07:47:00,45.0,37.9,30.09,West,270,0.0,0.2,76,0.00,,,0.00,WUHU216TE923,2013-05-13 11:47:00,
2013-05-13 07:52:00,45.1,38.0,30.09,West,270,0.0,0.0,76,0.00,,,0.00,WUHU216TE923,2013-05-13 11:52:00,
2013-05-13 07:57:00,45.5,38.4,30.10,East,90,0.0,0.0,76,0.00,,,0.00,WUHU216TE923,2013-05-13 11:57:00,
2013-05-13 08:02:00,45.5,37.8,30.10,WSW,248,0.0,0.0,74,0.00,,,0.00,WUHU216TE923,2013-05-13 12:02:00,
2013-05-13 08:07:00,45.9,38.2,30.10,West,270,0.4,0.4,74,0.00,,,0.00,WUHU216TE923,2013-05-13 12:07:00,
2013-05-13 08:12:00,46.2,38.4,30.10,West,270,0.4,0.4,74,0.00,,,0.00,WUHU216TE923,2013-05-13 12:12:00,
2013-05-13 08:17:00,46.4,38.3,30.10,West,270,0.1,0.4,73,0.00,,,0.00,WUHU216TE923,2013-05-13 12:17:00,
2013-05-13 08:22:00,46.6,38.5,30.10,West,270,0.0,0.1,73,0.00,,,0.00,WUHU216TE923,2013-05-13 12:22:00,
2013-05-13 08:27:00,46.9,38.4,30.10,NNW,338,0.1,0.1,72,0.00,,,0.00,WUHU216TE923,2013-05-13 12:27:00,
2013-05-13 08:32:00,47.1,37.9,30.10,East,90,0.3,2.8,70,0.00,,,0.00,WUHU216TE923,2013-05-13 12:32:00,
2013-05-13 08:37:00,47.7,38.8,30.11,WSW,248,0.7,2.8,71,0.00,,,0.00,WUHU216TE923,2013-05-13 12:37:00,
2013-05-13 08:42:00,47.7,38.1,30.11,West,270,1.3,1.5,69,0.00,,,0.00,WUHU216TE923,2013-05-13 12:42:00,
2013-05-13 08:47:00,47.8,37.9,30.11,SW,225,1.5,2.4,68,0.00,,,0.00,WUHU216TE923,2013-05-13 12:47:00,
2013-05-13 08:52:00,48.0,37.7,30.11,West,270,1.6,2.4,67,0.00,,,0.00,WUHU216TE923,2013-05-13 12:52:00,
2013-05-13 08:57:00,48.6,38.6,30.13,WSW,248,1.9,2.2,68,0.00,,,0.00,WUHU216TE923,2013-05-13 12:57:00,
2013-05-13 09:02:00,48.6,38.2,30.13,WSW,248,1.9,2.2,67,0.00,,,0.00,WUHU216TE923,2013-05-13 13:02:00,
2013-05-13 09:07:00,48.9,37.8,30.13,WSW,248,2.0,3.5,65,0.00,,,0.00,WUHU216TE923,2013-05-13 13:07:00,
2013-05-13 09:12:00,49.1,37.6,30.13,WSW,248,2.5,5.1,64,0.00,,,0.00,WUHU216TE923,2013-05-13 13:12:00,
2013-05-13 09:17:00,49.5,37.9,30.14,WSW,248,2.8,5.1,64,0.00,,,0.00,WUHU216TE923,2013-05-13 13:17:00,
2013-05-13 09:22:00,49.8,38.2,30.14,SW,225,2.5,3.1,64,0.00,,,0.00,WUHU216TE923,2013-05-13 13:22:00,
2013-05-13 09:27:00,50.0,38.0,30.14,West,270,2.4,3.1,63,0.00,,,0.00,WUHU216TE923,2013-05-13 13:27:00,
2013-05-13 09:32:00,50.2,37.8,30.14,WSW,248,2.6,3.1,62,0.00,,,0.00,WUHU216TE923,2013-05-13 13:32:00,
2013-05-13 09:37:00,50.5,38.1,30.15,WSW,248,2.6,3.1,62,0.00,,,0.00,WUHU216TE923,2013-05-13 13:37:00,
2013-05-13 09:42:00,50.7,37.8,30.15,WSW,248,2.5,3.1,61,0.00,,,0.00,WUHU216TE923,2013-05-13 13:42:00,
2013-05-13 09:47:00,51.3,38.4,30.15,WSW,248,2.3,3.1,61,0.00,,,0.00,WUHU216TE923,2013-05-13 13:47:00,
2013-05-13 09:52:00,51.3,38.0,30.15,WSW,248,2.7,5.1,60,0.00,,,0.00,WUHU216TE923,2013-05-13 13:52:00,
2013-05-13 09:57:00,51.3,38.0,30.15,WSW,248,2.7,5.1,60,0.00,,,0.00,WUHU216TE923,2013-05-13 13:57:00,
2013-05-13 10:02:00,52.0,37.8,30.15,WSW,248,2.9,3.7,58,0.00,,,0.00,WUHU216TE923,2013-05-13 14:02:00,
2013-05-13 10:07:00,52.0,37.8,30.15,WSW,248,2.9,3.7,58,0.00,,,0.00,WUHU216TE923,2013-05-13 14:07:00,
2013-05-13 10:12:00,52.3,38.0,30.15,WSW,248,2.8,4.4,58,0.00,,,0.00,WUHU216TE923,2013-05-13 14:12:00,
2013-05-13 10:17:00,52.3,38.0,30.15,WSW,248,2.8,4.4,58,0.00,,,0.00,WUHU216TE923,2013-05-13 14:17:00,
2013-05-13 10:22:00,53.1,37.4,30.16,WSW,248,2.9,3.9,55,0.00,,,0.00,WUHU216TE923,2013-05-13 14:22:00,
2013-05-13 10:27:00,53.1,37.4,30.16,WSW,248,2.9,3.9,55,0.00,,,0.00,WUHU216TE923,2013-05-13 14:27:00,
2013-05-13 10:32:00,53.6,37.4,30.16,South,180,3.1,3.1,54,0.00,,,0.00,WUHU216TE923,2013-05-13 14:32:00,
2013-05-13 10:37:00,53.6,37.4,30.16,South,180,3.1,3.1,54,0.00,,,0.00,WUHU216TE923,2013-05-13 14:37:00,
2013-05-13 10:42:00,54.0,37.3,30.16,West,270,2.7,2.9,53,0.00,,,0.00,WUHU216TE923,2013-05-13 14:42:00,
2013-05-13 10:47:00,54.0,37.3,30.16,West,270,2.7,2.9,53,0.00,,,0.00,WUHU216TE923,2013-05-13 14:47:00,
2013-05-13 10:52:00,54.3,36.0,30.16,SW,225,2.1,5.5,50,0.00,,,0.00,WUHU216TE923,2013-05-13 14:52:00,
2013-05-13 10:57:00,54.3,36.0,30.16,SW,225,2.1,5.5,50,0.00,,,0.00,WUHU216TE923,2013-05-13 14:57:00,
2013-05-13 11:02:00,54.9,36.1,30.16,ENE,68,2.7,4.9,49,0.00,,,0.00,WUHU216TE923,2013-05-13 15:02:00,
2013-05-13 11:07:00,54.9,36.1,30.16,ENE,68,2.7,4.9,49,0.00,,,0.00,WUHU216TE923,2013-05-13 15:07:00,
2013-05-13 11:12:00,55.6,36.2,30.16,WSW,248,3.0,5.7,48,0.00,,,0.00,WUHU216TE923,2013-05-13 15:12:00,
2013-05-13 11:17:00,55.6,36.2,30.16,WSW,248,3.0,5.7,48,0.00,,,0.00,WUHU216TE923,2013-05-13 15:17:00,
2013-05-13 11:22:00,55.8,36.4,30.16,West,270,2.6,2.7,48,0.00,,,0.00,WUHU216TE923,2013-05-13 15:22:00,
2013-05-13 11:27:00,55.8,36.4,30.16,West,270,2.6,2.7,48,0.00,,,0.00,WUHU216TE923,2013-05-13 15:27:00,
2013-05-13 11:32:00,56.5,37.5,30.16,SW,225,2.6,3.2,49,0.00,,,0.00,WUHU216TE923,2013-05-13 15:32:00,
2013-05-13 11:37:00,56.5,37.5,30.16,SW,225,2.6,3.2,49,0.00,,,0.00,WUHU216TE923,2013-05-13 15:37:00,
2013-05-13 11:42:00,57.2,37.6,30.18,WSW,248,2.4,5.6,48,0.00,,,0.00,WUHU216TE923,2013-05-13 15:42:00,
2013-05-13 11:47:00,57.2,37.6,30.18,WSW,248,2.4,5.6,48,0.00,,,0.00,WUHU216TE923,2013-05-13 15:47:00,
2013-05-13 11:52:00,57.7,37.0,30.18,WSW,248,3.2,4.7,46,0.00,,,0.00,WUHU216TE923,2013-05-13 15:52:00,
2013-05-13 11:57:00,57.6,36.3,30.18,WSW,248,3.6,5.2,45,0.00,,,0.00,WUHU216TE923,2013-05-13 15:57:00,
2013-05-13 12:02:00,57.7,37.0,30.18,SW,225,4.0,5.2,46,0.00,,,0.00,WUHU216TE923,2013-05-13 16:02:00,
2013-05-13 12:07:00,57.7,37.0,30.18,SW,225,4.0,4.0,46,0.00,,,0.00,WUHU216TE923,2013-05-13 16:07:00,
2013-05-13 12:12:00,57.7,37.0,30.18,SW,225,4.0,4.0,46,0.00,,,0.00,WUHU216TE923,2013-05-13 16:12:00,
2013-05-13 12:17:00,58.6,37.8,30.17,WSW,248,3.7,4.0,46,0.00,,,0.00,WUHU216TE923,2013-05-13 16:17:00,
2013-05-13 12:22:00,59.2,37.8,30.17,WSW,248,4.0,4.0,45,0.00,,,0.00,WUHU216TE923,2013-05-13 16:22:00,
2013-05-13 12:27:00,59.5,37.5,30.17,East,90,2.9,4.0,44,0.00,,,0.00,WUHU216TE923,2013-05-13 16:27:00,
2013-05-13 12:32:00,59.5,36.9,30.17,NNE,23,3.2,7.0,43,0.00,,,0.00,WUHU216TE923,2013-05-13 16:32:00,
2013-05-13 12:37:00,59.5,36.3,30.17,WSW,248,3.9,7.0,42,0.00,,,0.00,WUHU216TE923,2013-05-13 16:37:00,
2013-05-13 12:42:00,59.7,37.0,30.17,SW,225,3.7,3.9,43,0.00,,,0.00,WUHU216TE923,2013-05-13 16:42:00,
2013-05-13 12:47:00,60.3,37.6,30.17,West,270,3.3,3.8,43,0.00,,,0.00,WUHU216TE923,2013-05-13 16:47:00,
2013-05-13 12:52:00,60.6,37.9,30.17,SW,225,3.3,3.8,43,0.00,,,0.00,WUHU216TE923,2013-05-13 16:52:00,
2013-05-13 12:57:00,60.6,38.5,30.16,WSW,248,2.7,6.6,44,0.00,,,0.00,WUHU216TE923,2013-05-13 16:57:00,
2013-05-13 13:02:00,61.0,38.2,30.16,SW,225,3.4,6.6,43,0.00,,,0.00,WUHU216TE923,2013-05-13 17:02:00,
2013-05-13 13:07:00,61.5,38.1,30.16,WSW,248,4.0,5.3,42,0.00,,,0.00,WUHU216TE923,2013-05-13 17:07:00,
2013-05-13 13:12:00,61.5,38.1,30.16,SW,225,3.1,4.0,42,0.00,,,0.00,WUHU216TE923,2013-05-13 17:12:00,
2013-05-13 13:17:00,61.7,37.6,30.15,West,270,3.7,4.9,41,0.00,,,0.00,WUHU216TE923,2013-05-13 17:17:00,
2013-05-13 13:22:00,62.1,38.6,30.15,West,270,4.2,7.3,42,0.00,,,0.00,WUHU216TE923,2013-05-13 17:22:00,
2013-05-13 13:27:00,61.9,37.8,30.15,WSW,248,5.0,7.3,41,0.00,,,0.00,WUHU216TE923,2013-05-13 17:27:00,
2013-05-13 13:32:00,61.7,38.2,30.15,WSW,248,4.4,6.3,42,0.00,,,0.00,WUHU216TE923,2013-05-13 17:32:00,
2013-05-13 13:37:00,62.1,38.6,30.14,SW,225,3.8,4.4,42,0.00,,,0.00,WUHU216TE923,2013-05-13 17:37:00,
2013-05-13 13:42:00,62.4,37.6,30.14,WSW,248,4.3,4.4,40,0.00,,,0.00,WUHU216TE923,2013-05-13 17:42:00,
2013-05-13 13:47:00,63.0,38.8,30.14,WNW,293,3.4,4.3,41,0.00,,,0.00,WUHU216TE923,2013-05-13 17:47:00,
2013-05-13 13:52:00,63.0,39.4,30.14,East,90,2.6,8.0,42,0.00,,,0.00,WUHU216TE923,2013-05-13 17:52:00,
2013-05-13 13:57:00,63.1,39.5,30.13,WSW,248,2.9,8.0,42,0.00,,,0.00,WUHU216TE923,2013-05-13 17:57:00,
2013-05-13 14:02:00,62.8,38.0,30.13,SW,225,3.4,5.9,40,0.00,,,0.00,WUHU216TE923,2013-05-13 18:02:00,
2013-05-13 14:07:00,62.8,38.0,30.13,WSW,248,3.4,4.2,40,0.00,,,0.00,WUHU216TE923,2013-05-13 18:07:00,
2013-05-13 14:12:00,63.0,38.8,30.13,WSW,248,3.3,4.2,41,0.00,,,0.00,WUHU216TE923,2013-05-13 18:12:00,
2013-05-13 14:17:00,63.5,38.6,30.12,WSW,248,3.1,3.8,40,0.00,,,0.00,WUHU216TE923,2013-05-13 18:17:00,
2013-05-13 14:22:00,63.9,39.0,30.12,WSW,248,3.0,6.9,40,0.00,,,0.00,WUHU216TE923,2013-05-13 18:22:00,
2013-05-13 14:27:00,63.5,38.6,30.12,NNW,338,3.0,6.9,40,0.00,,,0.00,WUHU216TE923,2013-05-13 18:27:00,
2013-05-13 14:32:00,63.9,39.0,30.12,WSW,248,3.3,5.4,40,0.00,,,0.00,WUHU216TE923,2013-05-13 18:32:00,
2013-05-13 14:37:00,62.8,36.6,30.12,SW,225,3.9,5.4,38,0.00,,,0.00,WUHU216TE923,2013-05-13 18:37:00,
2013-05-13 14:42:00,62.8,38.0,30.12,SW,225,4.4,4.4,40,0.00,,,0.00,WUHU216TE923,2013-05-13 18:42:00,
2013-05-13 14:47:00,63.3,39.1,30.12,West,270,3.8,5.6,41,0.00,,,0.00,WUHU216TE923,2013-05-13 18:47:00,
2013-05-13 14:52:00,63.5,37.9,30.12,WSW,248,3.4,5.6,39,0.00,,,0.00,WUHU216TE923,2013-05-13 18:52:00,
2013-05-13 14:57:00,63.7,38.1,30.11,WSW,248,3.7,7.0,39,0.00,,,0.00,WUHU216TE923,2013-05-13 18:57:00,
2013-05-13 15:02:00,63.9,39.0,30.11,West,270,3.0,7.0,40,0.00,,,0.00,WUHU216TE923,2013-05-13 19:02:00,
2013-05-13 15:07:00,64.2,39.2,30.11,East,90,2.4,3.0,40,0.00,,,0.00,WUHU216TE923,2013-05-13 19:07:00,
2013-05-13 15:12:00,64.2,38.6,30.11,NW,315,2.6,6.5,39,0.00,,,0.00,WUHU216TE923,2013-05-13 19:12:00,
2013-05-13 15:17:00,64.0,37.7,30.10,West,270,3.8,6.5,38,0.00,,,0.00,WUHU216TE923,2013-05-13 19:17:00,
2013-05-13 15:22:00,64.2,38.6,30.10,West,270,3.9,4.1,39,0.00,,,0.00,WUHU216TE923,2013-05-13 19:22:00,
2013-05-13 15:27:00,64.0,38.4,30.10,West,270,2.2,4.1,39,0.00,,,0.00,WUHU216TE923,2013-05-13 19:27:00,
2013-05-13 15:32:00,64.2,37.9,30.10,West,270,2.5,2.9,38,0.00,,,0.00,WUHU216TE923,2013-05-13 19:32:00,
2013-05-13 15:37:00,63.9,38.3,30.11,West,270,3.6,3.6,39,0.00,,,0.00,WUHU216TE923,2013-05-13 19:37:00,
2013-05-13 15:42:00,64.0,39.0,30.11,West,270,3.4,3.6,40,0.00,,,0.00,WUHU216TE923,2013-05-13 19:42:00,
2013-05-13 15:47:00,63.9,38.3,30.11,WSW,248,3.3,5.5,39,0.00,,,0.00,WUHU216TE923,2013-05-13 19:47:00,
2013-05-13 15:52:00,63.7,38.8,30.11,SW,225,3.8,5.5,40,0.00,,,0.00,WUHU216TE923,2013-05-13 19:52:00,
2013-05-13 15:57:00,64.0,39.0,30.11,SW,225,3.8,4.0,40,0.00,,,0.00,WUHU216TE923,2013-05-13 19:57:00,
2013-05-13 16:02:00,64.2,39.2,30.11,SW,225,3.6,8.8,40,0.00,,,0.00,WUHU216TE923,2013-05-13 20:02:00,
2013-05-13 16:07:00,64.0,38.4,30.11,WSW,248,3.6,8.8,39,0.00,,,0.00,WUHU216TE923,2013-05-13 20:07:00,
2013-05-13 16:12:00,63.7,39.4,30.11,WSW,248,3.4,6.0,41,0.00,,,0.00,WUHU216TE923,2013-05-13 20:12:00,
2013-05-13 16:17:00,63.9,39.0,30.10,SW,225,3.5,6.6,40,0.00,,,0.00,WUHU216TE923,2013-05-13 20:17:00,
2013-05-13 16:22:00,63.9,39.0,30.10,WSW,248,4.4,6.6,40,0.00,,,0.00,WUHU216TE923,2013-05-13 20:22:00,
2013-05-13 16:27:00,63.7,38.1,30.10,WSW,248,4.5,6.0,39,0.00,,,0.00,WUHU216TE923,2013-05-13 20:27:00,
2013-05-13 16:32:00,63.9,38.3,30.10,SSE,158,4.0,4.9,39,0.00,,,0.00,WUHU216TE923,2013-05-13 20:32:00,
2013-05-13 16:37:00,63.9,37.6,30.10,WSW,248,4.2,4.2,38,0.00,,,0.00,WUHU216TE923,2013-05-13 20:37:00,
2013-05-13 16:42:00,63.7,37.4,30.10,SW,225,4.0,4.2,38,0.00,,,0.00,WUHU216TE923,2013-05-13 20:42:00,
2013-05-13 16:47:00,63.9,38.3,30.10,WSW,248,3.7,4.0,39,0.00,,,0.00,WUHU216TE923,2013-05-13 20:47:00,
2013-05-13 16:52:00,63.7,38.1,30.10,West,270,4.1,4.4,39,0.00,,,0.00,WUHU216TE923,2013-05-13 20:52:00,
2013-05-13 16:57:00,63.3,39.1,30.09,South,180,3.3,4.4,41,0.00,,,0.00,WUHU216TE923,2013-05-13 20:57:00,
2013-05-13 17:02:00,63.3,39.1,30.09,West,270,2.3,3.3,41,0.00,,,0.00,WUHU216TE923,2013-05-13 21:02:00,
2013-05-13 17:07:00,63.7,38.8,30.09,SW,225,2.4,3.6,40,0.00,,,0.00,WUHU216TE923,2013-05-13 21:07:00,
2013-05-13 17:12:00,63.7,38.1,30.09,SW,225,2.8,3.8,39,0.00,,,0.00,WUHU216TE923,2013-05-13 21:12:00,
2013-05-13 17:17:00,63.1,38.2,30.09,South,180,3.1,3.8,40,0.00,,,0.00,WUHU216TE923,2013-05-13 21:17:00,
2013-05-13 17:21:00,63.3,39.1,30.09,WSW,248,2.6,3.1,41,0.00,,,0.00,WUHU216TE923,2013-05-13 21:21:00,
2013-05-13 17:22:00,63.3,39.1,30.09,WSW,248,2.6,3.1,41,0.00,,,0.00,WUHU216TE923,2013-05-13 21:22:00,
2013-05-13 17:27:00,63.3,39.1,30.09,WSW,248,2.6,3.1,41,0.00,,,0.00,WUHU216TE923,2013-05-13 21:27:00,
2013-05-13 17:32:00,63.1,37.6,30.09,WSW,248,2.2,4.7,39,0.00,,,0.00,WUHU216TE923,2013-05-13 21:32:00,
2013-05-13 17:37:00,63.1,38.2,30.09,WSW,248,2.9,4.7,40,0.00,,,0.00,WUHU216TE923,2013-05-13 21:37:00,
2013-05-13 17:42:00,63.0,37.5,30.09,WSW,248,2.7,3.0,39,0.00,,,0.00,WUHU216TE923,2013-05-13 21:42:00,
2013-05-13 17:47:00,63.1,37.6,30.09,NNW,338,3.2,6.2,39,0.00,,,0.00,WUHU216TE923,2013-05-13 21:47:00,
2013-05-13 17:52:00,63.0,38.8,30.09,SW,225,2.8,6.2,41,0.00,,,0.00,WUHU216TE923,2013-05-13 21:52:00,
2013-05-13 17:57:00,62.8,38.6,30.09,NW,315,2.4,3.8,41,0.00,,,0.00,WUHU216TE923,2013-05-13 21:57:00,
2013-05-13 18:02:00,62.8,38.6,30.09,WSW,248,1.9,2.8,41,0.00,,,0.00,WUHU216TE923,2013-05-13 22:02:00,
2013-05-13 18:07:00,62.4,38.2,30.09,East,90,1.6,2.8,41,0.00,,,0.00,WUHU216TE923,2013-05-13 22:07:00,
2013-05-13 18:12:00,62.4,38.2,30.09,West,270,1.5,1.7,41,0.00,,,0.00,WUHU216TE923,2013-05-13 22:12:00,
2013-05-13 18:17:00,62.4,37.6,30.08,WSW,248,2.1,4.3,40,0.00,,,0.00,WUHU216TE923,2013-05-13 22:17:00,
2013-05-13 18:22:00,62.2,37.4,30.08,SW,225,2.7,4.3,40,0.00,,,0.00,WUHU216TE923,2013-05-13 22:22:00,
2013-05-13 18:27:00,62.4,37.6,30.08,WSW,248,1.8,2.7,40,0.00,,,0.00,WUHU216TE923,2013-05-13 22:27:00,
2013-05-13 18:32:00,62.2,37.4,30.08,SW,225,2.0,3.6,40,0.00,,,0.00,WUHU216TE923,2013-05-13 22:32:00,
2013-05-13 18:37:00,62.4,38.2,30.08,West,270,2.6,3.6,41,0.00,,,0.00,WUHU216TE923,2013-05-13 22:37:00,
2013-05-13 18:42:00,62.2,37.4,30.08,WSW,248,2.8,4.1,40,0.00,,,0.00,WUHU216TE923,2013-05-13 22:42:00,
2013-05-13 18:47:00,62.1,36.7,30.08,West,270,3.2,4.1,39,0.00,,,0.00,WUHU216TE923,2013-05-13 22:47:00,
2013-05-13 18:52:00,62.1,37.3,30.08,SW,225,2.9,3.2,40,0.00,,,0.00,WUHU216TE923,2013-05-13 22:52:00,
2013-05-13 18:57:00,61.9,37.8,30.08,WSW,248,2.4,3.3,41,0.00,,,0.00,WUHU216TE923,2013-05-13 22:57:00,
2013-05-13 19:02:00,62.1,38.0,30.08,WSW,248,2.2,3.3,41,0.00,,,0.00,WUHU216TE923,2013-05-13 23:02:00,
2013-05-13 19:07:00,61.9,37.2,30.08,SW,225,2.0,2.8,40,0.00,,,0.00,WUHU216TE923,2013-05-13 23:07:00,
2013-05-13 19:12:00,62.1,37.3,30.08,WSW,248,2.1,3.0,40,0.00,,,0.00,WUHU216TE923,2013-05-13 23:12:00,
2013-05-13 19:17:00,62.1,37.3,30.07,SW,225,2.3,3.0,40,0.00,,,0.00,WUHU216TE923,2013-05-13 23:17:00,
2013-05-13 19:22:00,61.7,37.0,30.07,SW,225,2.6,4.3,40,0.00,,,0.00,WUHU216TE923,2013-05-13 23:22:00,
2013-05-13 19:27:00,61.5,37.4,30.07,West,270,3.2,4.3,41,0.00,,,0.00,WUHU216TE923,2013-05-13 23:27:00,
2013-05-13 19:32:00,61.7,37.6,30.07,SW,225,3.0,4.2,41,0.00,,,0.00,WUHU216TE923,2013-05-13 23:32:00,
2013-05-13 19:37:00,61.5,37.4,30.08,WSW,248,2.5,3.0,41,0.00,,,0.00,WUHU216TE923,2013-05-13 23:37:00,
2013-05-13 19:42:00,61.5,37.4,30.08,WSW,248,2.2,2.5,41,0.00,,,0.00,WUHU216TE923,2013-05-13 23:42:00,
2013-05-13 19:47:00,61.3,37.9,30.08,WSW,248,1.7,2.4,42,0.00,,,0.00,WUHU216TE923,2013-05-13 23:47:00,
2013-05-13 19:52:00,61.3,37.9,30.08,SSE,158,1.3,2.4,42,0.00,,,0.00,WUHU216TE923,2013-05-13 23:52:00,
2013-05-13 19:57:00,61.0,37.6,30.08,West,270,0.9,1.8,42,0.00,,,0.00,WUHU216TE923,2013-05-13 23:57:00,
2013-05-13 20:02:00,61.0,38.2,30.08,NW,315,0.6,1.5,43,0.00,,,0.00,WUHU216TE923,2013-05-14 00:02:00,
2013-05-13 20:07:00,60.8,38.7,30.08,West,270,0.5,1.5,44,0.00,,,0.00,WUHU216TE923,2013-05-14 00:07:00,
2013-05-13 20:12:00,60.6,38.5,30.08,NW,315,0.2,0.5,44,0.00,,,0.00,WUHU216TE923,2013-05-14 00:12:00,
2013-05-13 20:17:00,60.6,39.1,30.09,West,270,0.5,0.5,45,0.00,,,0.00,WUHU216TE923,2013-05-14 00:17:00,
2013-05-13 20:22:00,60.3,39.4,30.09,WSW,248,0.5,0.5,46,0.00,,,0.00,WUHU216TE923,2013-05-14 00:22:00,
2013-05-13 20:27:00,60.3,40.5,30.09,NW,315,0.0,0.5,48,0.00,,,0.00,WUHU216TE923,2013-05-14 00:27:00,
2013-05-13 20:32:00,59.9,40.1,30.09,NW,315,0.0,0.0,48,0.00,,,0.00,WUHU216TE923,2013-05-14 00:32:00,
2013-05-13 20:37:00,59.5,40.3,30.09,NW,315,0.0,0.0,49,0.00,,,0.00,WUHU216TE923,2013-05-14 00:37:00,
2013-05-13 20:42:00,59.5,40.8,30.09,NNE,23,0.0,0.0,50,0.00,,,0.00,WUHU216TE923,2013-05-14 00:42:00,
2013-05-13 20:47:00,59.4,41.3,30.09,ENE,68,0.0,0.0,51,0.00,,,0.00,WUHU216TE923,2013-05-14 00:47:00,
2013-05-13 20:52:00,59.2,41.6,30.09,NNE,23,0.1,1.3,52,0.00,,,0.00,WUHU216TE923,2013-05-14 00:52:00,
2013-05-13 20:57:00,58.8,41.8,30.09,ENE,68,0.2,1.3,53,0.00,,,0.00,WUHU216TE923,2013-05-14 00:57:00,
2013-05-13 21:02:00,58.5,41.5,30.09,ENE,68,0.2,0.2,53,0.00,,,0.00,WUHU216TE923,2013-05-14 01:02:00,
2013-05-13 21:07:00,58.1,41.6,30.09,ENE,68,0.0,0.2,54,0.00,,,0.00,WUHU216TE923,2013-05-14 01:07:00,
2013-05-13 21:12:00,57.9,42.9,30.09,NE,45,0.1,1.2,57,0.00,,,0.00,WUHU216TE923,2013-05-14 01:12:00,
2013-05-13 21:17:00,57.7,42.7,30.09,NE,45,0.1,1.2,57,0.00,,,0.00,WUHU216TE923,2013-05-14 01:17:00,
2013-05-13 21:22:00,57.4,42.4,30.09,NE,45,0.2,1.3,57,0.00,,,0.00,WUHU216TE923,2013-05-14 01:22:00,
2013-05-13 21:27:00,57.0,41.5,30.09,NE,45,0.4,1.3,56,0.00,,,0.00,WUHU216TE923,2013-05-14 01:27:00,
2013-05-13 21:32:00,56.5,40.6,30.09,NE,45,0.4,0.4,55,0.00,,,0.00,WUHU216TE923,2013-05-14 01:32:00,
2013-05-13 21:37:00,56.1,41.6,30.10,NE,45,0.0,0.4,58,0.00,,,0.00,WUHU216TE923,2013-05-14 01:37:00,
2013-05-13 21:42:00,55.8,41.3,30.10,NE,45,0.0,0.0,58,0.00,,,0.00,WUHU216TE923,2013-05-14 01:42:00,
2013-05-13 21:47:00,55.8,41.8,30.10,NE,45,0.0,0.0,59,0.00,,,0.00,WUHU216TE923,2013-05-14 01:47:00,
2013-05-13 21:52:00,55.8,42.2,30.10,NE,45,0.0,0.0,60,0.00,,,0.00,WUHU216TE923,2013-05-14 01:52:00,
2013-05-13 21:57:00,55.6,42.5,30.10,NE,45,0.0,0.0,61,0.00,,,0.00,WUHU216TE923,2013-05-14 01:57:00,
2013-05-13 22:02:00,55.2,42.1,30.10,NE,45,0.1,0.1,61,0.00,,,0.00,WUHU216TE923,2013-05-14 02:02:00,
2013-05-13 22:07:00,55.2,41.7,30.10,West,270,0.2,0.2,60,0.00,,,0.00,WUHU216TE923,2013-05-14 02:07:00,
2013-05-13 22:12:00,54.9,41.8,30.10,West,270,0.1,0.2,61,0.00,,,0.00,WUHU216TE923,2013-05-14 02:12:00,
2013-05-13 22:17:00,54.9,42.7,30.11,West,270,0.0,0.1,63,0.00,,,0.00,WUHU216TE923,2013-05-14 02:17:00,
2013-05-13 22:22:00,54.3,42.1,30.11,West,270,0.0,0.0,63,0.00,,,0.00,WUHU216TE923,2013-05-14 02:22:00,
2013-05-13 22:27:00,54.3,42.5,30.11,NNE,23,0.2,0.2,64,0.00,,,0.00,WUHU216TE923,2013-05-14 02:27:00,
2013-05-13 22:32:00,54.1,42.3,30.11,NNE,23,0.2,0.2,64,0.00,,,0.00,WUHU216TE923,2013-05-14 02:32:00,
2013-05-13 22:37:00,53.6,42.2,30.11,NNE,23,0.0,0.2,65,0.00,,,0.00,WUHU216TE923,2013-05-14 02:37:00,
2013-05-13 22:42:00,53.4,42.0,30.11,NNE,23,0.0,0.0,65,0.00,,,0.00,WUHU216TE923,2013-05-14 02:42:00,
2013-05-13 22:47:00,53.4,42.0,30.11,ENE,68,0.0,0.0,65,0.00,,,0.00,WUHU216TE923,2013-05-14 02:47:00,
2013-05-13 22:52:00,53.4,42.0,30.11,NNE,23,0.5,0.5,65,0.00,,,0.00,WUHU216TE923,2013-05-14 02:52:00,
2013-05-13 22:57:00,52.9,41.2,30.12,NNE,23,0.6,0.6,64,0.00,,,0.00,WUHU216TE923,2013-05-14 02:57:00,
2013-05-13 23:02:00,52.7,41.4,30.12,NNE,23,0.2,0.6,65,0.00,,,0.00,WUHU216TE923,2013-05-14 03:02:00,
2013-05-13 23:07:00,52.7,41.4,30.12,NNE,23,0.2,0.6,65,0.00,,,0.00,WUHU216TE923,2013-05-14 03:07:00,
2013-05-13 23:12:00,52.5,42.0,30.12,SW,225,0.0,0.0,67,0.00,,,0.00,WUHU216TE923,2013-05-14 03:12:00,
2013-05-13 23:17:00,52.3,41.8,30.11,WNW,293,0.0,0.0,67,0.00,,,0.00,WUHU216TE923,2013-05-14 03:17:00,
2013-05-13 23:22:00,52.2,41.7,30.11,WNW,293,0.0,0.0,67,0.00,,,0.00,WUHU216TE923,2013-05-14 03:22:00,
2013-05-13 23:27:00,52.2,41.7,30.11,WNW,293,0.0,0.0,67,0.00,,,0.00,WUHU216TE923,2013-05-14 03:27:00,
2013-05-13 23:32:00,52.0,41.9,30.11,WNW,293,0.0,0.0,68,0.00,,,0.00,WUHU216TE923,2013-05-14 03:32:00,
2013-05-13 23:37:00,52.0,41.9,30.11,WNW,293,0.0,0.0,68,0.00,,,0.00,WUHU216TE923,2013-05-14 03:37:00,
2013-05-13 23:42:00,52.0,42.6,30.11,WNW,293,0.0,0.0,70,0.00,,,0.00,WUHU216TE923,2013-05-14 03:42:00,
2013-05-13 23:47:00,51.8,42.4,30.11,WNW,293,0.1,0.1,70,0.00,,,0.00,WUHU216TE923,2013-05-14 03:47:00,
2013-05-13 23:52:00,51.6,42.2,30.11,WNW,293,0.1,0.1,70,0.00,,,0.00,WUHU216TE923,2013-05-14 03:52:00,
2013-05-13 23:57:00,51.4,42.4,30.11,WNW,293,0.0,0.1,71,0.00,,,0.00,WUHU216TE923,2013-05-14 03:57:00,